Overton, Nevada Weather observations

Data are for observation ending at time listed.
 Day   Time    Ave.   Ave.  Ave.  Vector   Max.   Stn.    Total    Solar   Ave.  
  of    of     Air    Rel.  Wind   Wind    Wind   Baro.  Precip.   Rad.    Soil  
Year   Day     Temp.  Hum.  Speed  Dir.    Gust   Pres.                    Temp. 
2026   (PST)    F      %     mph   deg.    mph     mb.     in.     W/m2     F   
------------------------------------------------------------------------------
 243   17:30   99.3    14   10.7   161     23.5   962.9    0.00      49    103.5
 243   17:40   99.0    14    8.4   157     18.9   962.8    0.00      27    102.8
 243   17:50   98.5    15    9.6   166     20.5   962.8    0.00      20    102.5
 243   18:00   98.2    15    8.4   161     17.0   962.6    0.00      12    101.9
 243   18:10   97.9    15    8.3   168     14.2   962.6    0.00       7    101.4
 243   18:20   97.6    16    8.2   169     15.1   962.7    0.00       2    101.1
 243   18:30   97.2    16    7.3   164     14.9   962.7    0.00       0    100.5
 243   18:40   97.0    17    8.1   163     16.9   962.8    0.00       0    100.2
 243   18:50   96.5    21    9.4   164     18.5   963.0    0.00       0    100.0
 243   19:00   95.9    23    8.8   172     21.9   963.1    0.00       0    99.6
 243   19:10   95.3    25    9.2   170     21.0   963.2    0.00       0    99.2
 243   19:20   94.6    26    7.2   163     14.0   963.4    0.00       0    98.7
 243   19:30   94.0    27    7.2   170     13.0   963.5    0.00       0    98.3
 243   19:40   93.8    27    8.6   171     15.4   963.5    0.00       0    98.0
 243   19:50   93.7    27    9.3   174     15.8   963.7    0.00       0    97.7
 243   20:00   93.5    28    7.7   173     14.5   963.7    0.00       0    97.4
 243   20:10   93.4    28    7.9   173     17.1   963.8    0.00       0    97.2
 243   20:20   93.3    28    7.4   169     13.3   963.9    0.00       0    97.0
 243   20:30   93.2    28    9.3   168     15.6   964.0    0.00       0    96.8
 243   20:40   93.1    29   11.1   177     22.6   964.0    0.00       0    96.6
 243   20:50   92.8    29    8.7   168     16.4   964.0    0.00       0    96.3
 243   21:00   92.5    30    9.4   162     19.6   964.0    0.00       0    96.0
 243   21:10   92.1    31   10.3   159     21.7   964.1    0.00       0    95.6
 243   21:20   91.7    32    9.2   164     17.2   964.1    0.00       0    95.4
 243   21:30   91.5    32    8.8   162     16.4   964.2    0.00       0    95.1
 243   21:40   91.3    32    7.7   157     15.9   964.3    0.00       0    94.8
 243   21:50   91.2    32    6.0   159     13.2   964.3    0.00       0    94.6
 243   22:00   91.1    32    4.7   147     11.8   964.5    0.00       0    94.4
 243   22:10   90.0    31    6.6    84     13.2   964.8    0.00       0    93.8
 243   22:20   88.4    30    4.9    41     14.0   964.8    0.00       0    93.2
 243   22:30   87.6    30    9.3    52     17.8   964.9    0.00       0    92.6
 243   22:40   87.7    31   10.4    37     19.5   964.9    0.00       0    92.3
 243   22:50   88.1    31    9.0    40     14.4   965.1    0.00       0    92.2
 243   23:00   86.1    31    7.3    35     12.2   965.3    0.00       0    91.3
 243   23:10   85.7    32    7.0    62     12.4   965.3    0.00       0    91.2
 243   23:20   85.4    32    6.0    53     11.5   965.2    0.00       0    90.9
 243   23:30   85.1    32    7.0    52     12.7   965.1    0.00       0    90.6
 243   23:40   85.1    33    7.8    66     12.0   965.1    0.00       0    90.4
 243   23:50   85.4    34    6.5    68     11.2   965.2    0.00       0    90.3
 244    0:00   86.0    34    7.5    73     13.2   965.4    0.00       0    90.4
 244    0:10   86.0    35    7.1    74     12.0   965.4    0.00       0    90.2
 244    0:20   85.8    36    3.9    80      7.4   965.5    0.00       0    90.2
 244    0:30   86.4    37    3.2   110      7.7   965.5    0.00       0    90.3
 244    0:40   86.8    37    2.9   127      7.7   965.4    0.00       0    90.3
 244    0:50   86.8    37    3.1   132      8.3   965.4    0.00       0    90.2
 244    1:00   86.4    38    3.3   133      8.4   965.4    0.00       0    90.1
 244    1:10   86.5    37    3.8   139      8.3   965.3    0.00       0    90.0
 244    1:20   86.5    37    4.3   133      9.1   965.3    0.00       0    89.9
 244    1:30   86.4    37    3.5   132      7.3   965.4    0.00       0    89.8
 244    1:40   86.0    37    3.4   128      7.7   965.4    0.00       0    89.6
 244    1:50   85.9    37    3.2   126      8.0   965.5    0.00       0    89.5
 244    2:00   85.6    37    4.0   120      9.2   965.6    0.00       0    89.3
 244    2:10   85.3    38    3.4   110      6.3   965.6    0.00       0    89.1
 244    2:20   84.8    39    2.9   101      5.0   965.5    0.00       0    88.8
 244    2:30   84.6    39    3.1   114      6.5   965.5    0.00       0    88.7
 244    2:40   84.4    40    1.9   120      5.2   965.4    0.00       0    88.5
 244    2:50   85.3    38    5.4   163     13.2   965.4    0.00       0    88.8
 244    3:00   86.2    37    5.6   156     15.3   965.4    0.00       0    88.8
 244    3:10   85.0    39    2.6   106      6.5   965.4    0.00       0    88.3
 244    3:20   84.3    40    2.7   135     11.2   965.5    0.00       0    88.2
 244    3:30   85.4    38    3.4   154     12.1   965.4    0.00       0    88.4
 244    3:40   83.7    41    2.5   124      8.1   965.5    0.00       0    87.8
 244    3:50   85.7    37    7.9   169     13.8   965.5    0.00       0    88.5
 244    4:00   86.0    37    8.8   176     15.7   965.7    0.00       0    88.7
 244    4:10   85.8    38    7.5   166     13.5   965.9    0.00       0    88.5
 244    4:20   85.6    39    5.4   157     12.3   965.9    0.00       0    88.4
 244    4:30   85.4    39    4.2   141      9.2   965.9    0.00       0    88.2
 244    4:40   85.0    40    3.6   126      8.3   965.9    0.00       0    88.0
 244    4:50   84.5    41    4.0   123      7.7   965.8    0.00       0    87.9
 244    5:00   84.2    42    3.5   129      7.5   965.8    0.00       1    87.8
 244    5:10   84.2    42    3.4   130      8.2   965.8    0.00       2    87.8
 244    5:20   83.9    43    2.8   117      6.7   965.9    0.00       7    87.6
 244    5:30   82.5    45    3.8   117      6.9   965.9    0.00      16    87.3
 244    5:40   83.5    44    3.2   136      9.2   965.9    0.00      39    88.0
 244    5:50   84.8    42    5.1   142      9.6   966.1    0.00      31    88.6
 244    6:00   84.7    42    5.3   139     10.4   966.1    0.00      60    88.9
 244    6:10   85.4    41    5.6   141     12.1   966.3    0.00     130    91.7
 244    6:20   85.7    41    5.5   140     11.5   966.4    0.00     144    92.8
 244    6:30   86.2    40    4.8   135      9.9   966.6    0.00     200    94.7
 244    6:40   86.1    42    4.5   132      9.5   966.8    0.00     230    96.1
 244    6:50   86.5    42    4.7   132     10.1   966.9    0.00     257    97.5
 244    7:00   86.7    41    5.1   132     11.7   967.0    0.00     271    98.0
 244    7:10   87.1    40    6.8   143     13.9   967.1    0.00     328    99.3
 244    7:20   87.5    38    6.4   148     14.0   967.2    0.00     369    100.6
 244    7:30   87.9    37    7.9   155     15.1   967.3    0.00     356    100.7
 244    7:40   88.1    36    8.5   152     17.6   967.3    0.00     432    101.9
 244    7:50   88.2    35    8.9   148     17.1   967.5    0.00     470    102.7
 244    8:00   88.9    34    8.0   159     16.4   967.6    0.00     504    104.1
 244    8:10   88.8    34    9.4   157     17.5   967.6    0.00     536    104.6
 244    8:20   89.1    34    8.8   153     17.0   967.7    0.00     563    105.3
 244    8:30   89.5    33    9.1   159     17.6   967.8    0.00     586    106.2
 244    8:40   90.3    32    8.2   155     18.3   967.8    0.00     631    107.2
 244    8:50   90.7    31    9.3   154     22.6   967.8    0.00     633    107.3
 244    9:00   91.0    31    9.0   171     16.7   967.9    0.00     671    108.7
 244    9:10   91.4    30    8.3   161     17.1   968.0    0.00     699    109.3
 244    9:20   91.6    30    6.9   158     14.0   968.0    0.00     730    110.3
 244    9:30   92.0    29    8.9   160     20.5   968.0    0.00     796    111.0
 244    9:40   92.5    28    9.3   179     18.2   968.1    0.00     657    111.6
 244    9:50   91.5    30    8.9   172     16.9   968.1    0.00     266    108.0
 244   10:00   92.4    29    7.7   175     17.2   968.0    0.00     604    109.8
 244   10:10   92.1    29    8.0   162     18.1   967.9    0.00     319    107.3
 244   10:20   91.8    28    7.7   185     13.3   967.8    0.00     402    106.8
 244   10:30   93.0    26    9.9   192     16.6   967.6    0.00     785    108.9
 244   10:40   94.2    25    8.1   176     17.2   967.5    0.00     564    109.8
 244   10:50   93.1    25    8.3   186     14.5   967.4    0.00     413    108.0
 244   11:00   94.5    23   10.6   168     22.9   967.3    0.00     908    109.5
 244   11:10   94.7    22   10.6   178     16.4   967.2    0.00     823    110.3
 244   11:20   94.9    22    9.8   187     24.7   967.2    0.00     656    109.6
 244   11:30   94.4    23    9.3   184     17.2   967.1    0.00     704    110.0
 244   11:40   95.9    21    6.8   161     18.9   966.9    0.00     865    110.8
 244   11:50   96.9    20    7.4   164     16.7   966.8    0.00     901    111.5
 244   12:00   96.2    20    8.3   153     15.0   966.7    0.00     728    111.3
 244   12:10   96.9    19   10.3   177     30.0   966.4    0.00     915    111.6
 244   12:20   97.1    19    9.1   165     15.4   966.4    0.00     814    112.0
 244   12:30   97.2    18   10.8   194     22.4   966.3    0.00     922    112.0
 244   12:40   97.5    19    9.2   162     21.5   966.2    0.00     900    110.9
 244   12:50   97.5    19    8.3   152     20.8   966.1    0.00     887    109.9
 244   13:00   98.0    18    8.4   193     15.8   965.9    0.00     874    109.8
 244   13:10   98.0    19    8.0   164     16.1   965.8    0.00     809    109.2
 244   13:20   98.4    18    7.9   173     14.6   965.7    0.00     813    109.2
 244   13:30   98.9    18    8.8   197     21.5   965.4    0.00     813    108.7
 244   13:40   98.2    17   10.8   185     20.5   965.5    0.00     703    109.0
 244   13:50   98.4    17    6.7   178     14.9   965.2    0.00     611    108.4
 244   14:00   99.3    16    9.3   175     22.3   965.2    0.00     756    109.2
 244   14:10   98.8    17    8.4   168     18.4   965.1    0.00     704    109.1
 244   14:20   99.1    16   10.2   174     33.1   965.0    0.00     714    109.3
 244   14:30   99.4    15    7.8   156     16.4   964.9    0.00     665    108.3
 244   14:40   99.2    14   13.2   190     21.1   964.8    0.00     437    108.2
 244   14:50   99.2    14   11.6   188     21.6   964.6    0.00     573    107.9
 244   15:00   99.2    15    9.3   172     21.1   964.5    0.00     419    107.8
 244   15:10   99.5    16    8.9   170     21.9   964.3    0.00     402    107.6
 244   15:20  100.3    13   13.3   186     24.7   964.2    0.00     558    107.8
 244   15:30  100.5    13    7.5   173     13.4   964.2    0.00     506    107.5
 244   15:40  100.2    15   11.2   155     24.0   964.0    0.00     476    107.0
 244   15:50  100.1    16   12.8   166     24.3   964.0    0.00     349    106.8
 244   16:00   99.3    16    8.2   165     18.9   963.9    0.00      96    106.0
 244   16:10  100.1    15    8.1   154     14.7   963.9    0.00     275    106.0
 244   16:20   99.7    14    9.6   160     22.0   963.8    0.00     311    105.5
 244   16:30   99.5    12   11.5   171     22.4   963.8    0.00     139    105.0
 244   16:40   99.4    11   11.0   182     22.9   963.7    0.00     242    104.6
 244   16:50   99.3    11   10.8   180     20.5   963.6    0.00     224    104.4
 244   17:00   99.4    10   11.2   189     20.1   963.6    0.00     193    104.0
 244   17:10   99.6    10   10.4   188     17.6   963.5    0.00     106    103.6
 244   17:20   99.2     9    9.6   207     15.5   963.4    0.00     115    102.9

Return to Overton, Nevada graphs page.


Western Regional Climate Center,wrcc@dri.edu